메인 페이지
METAR-TAF:

METAR-TAF

공항 :

아타튀르크 국제공항

이스탄불 이스탄불, 터키

위도: 40-58N, 경도: 028-49E, 고도: 48m

현재 날씨관측

예보는 24분 전, 02:20시(UTC)에 발표되었습니다.
2kt
온도 8°C
습도 71%
기압 1024 hPa
시정 10km 이상
1500m 미만 상공 구름 및 적란운 없음

METAR: LTBA 120220Z 26002KT CAVOK 08/03 Q1024 NOSIG RMK RWY23 24003KT

시각: 05:44 (02:44 UTC)

예보

예보는 4 시간 4분 전, 22:40시(UTC)에 발표되었습니다.
예보 대상 시간: 12일 00시부터 13일 06시까지 (UTC)
여러 방향의 바람 2kt
시정 10km 이상
1500m 미만 상공 구름 및 적란운 없음
전환 중
12일 03시부터 12일 06시까지 (UTC)
북북동13kt
전환 중
12일 10시부터 12일 13시까지 (UTC)
서남서12kt
고도 3500ft 상공 구름 보통

TAF: LTBA 112240Z 1200/1306 VRB02KT CAVOK BECMG 1203/1206 03013KT BECMG 1210/1213 24012KT SCT035

4,000개 이상의 공항 관측 자료 및 예보 (METAR 및 TAF 보고).

지도상에서 검색 가능한 기상관측소가 노란 점과 빨간 점으로 표시되어 있습니다.

기상관측소 명을 보려면 표시 위로 마우스를 이동하세요.

날씨 관측과 예보를 보려면 클릭하세요.

지도 변경 : 확대하려면 엑스 표시가 있는 녹색 버튼, 축소하려면 빼기 표시가 있는 녹색 버튼, 다음 페이지의 지도를 보려면 녹색 화살표를 클릭하세요.


METAR-TAF: